Time;durP1;ratioP1;P1;durP2;ratioP2;P2;SDS_P1;SDS_P2;PMS_P1;PMS_P2;Temp;Humidity;BMP_temperature;BMP_pressure;BME280_temperature;BME280_humidity;BME280_pressure;Samples;Min_cycle;Max_cycle;Signal;HPM_P1;HPM_P2
2021/07/16 00:00:29;;;;;;;25.05;14.32;;;;;;;18.19;69.94;100564.44;10351850;28;20226;-76
2021/07/16 00:05:32;;;;;;;28.10;15.30;;;;;;;18.19;69.72;100568.00;10354710;28;20655;-75
2021/07/16 00:10:37;;;;;;;21.88;13.35;;;;;;;18.29;69.46;100576.84;10351241;28;20250;-75
2021/07/16 00:15:40;;;;;;;27.63;14.23;;;;;;;18.31;69.34;100593.81;10351158;28;20350;-76
2021/07/16 00:20:44;;;;;;;19.85;12.88;;;;;;;18.23;69.48;100606.56;10354100;28;20726;-76
2021/07/16 00:25:48;;;;;;;27.92;12.55;;;;;;;18.18;69.77;100615.22;10350749;28;21391;-76
2021/07/16 00:30:52;;;;;;;19.88;12.35;;;;;;;18.16;69.33;100622.72;10350794;28;20234;-76
2021/07/16 00:35:55;;;;;;;21.35;11.40;;;;;;;18.00;70.13;100617.28;10350068;28;21385;-75
2021/07/16 00:41:00;;;;;;;25.25;12.10;;;;;;;18.26;69.55;100611.66;10350477;28;20238;-76
2021/07/16 00:46:03;;;;;;;27.20;12.50;;;;;;;18.19;69.26;100605.22;10349697;28;20242;-76
2021/07/16 00:51:06;;;;;;;24.75;11.68;;;;;;;18.01;70.28;100617.09;10354424;28;20376;-75
2021/07/16 00:56:10;;;;;;;20.58;12.13;;;;;;;18.00;70.05;100612.69;10352351;28;20246;-76
2021/07/16 01:01:13;;;;;;;19.25;11.45;;;;;;;18.16;69.99;100611.00;10349716;28;20238;-76
2021/07/16 01:06:16;;;;;;;21.73;11.25;;;;;;;18.09;69.74;100617.09;10349217;28;20238;-76
2021/07/16 01:11:21;;;;;;;22.70;11.68;;;;;;;18.08;69.93;100623.56;10350793;28;20336;-75
2021/07/16 01:16:24;;;;;;;21.77;11.88;;;;;;;17.86;70.43;100632.31;10351360;28;20238;-75
2021/07/16 01:21:30;;;;;;;20.77;11.70;;;;;;;17.93;69.89;100631.47;10348325;28;20650;-76
2021/07/16 01:26:36;;;;;;;25.88;12.07;;;;;;;17.95;69.90;100641.34;10348632;28;20238;-76
2021/07/16 01:31:44;;;;;;;19.00;11.18;;;;;;;17.92;69.92;100643.38;10350151;28;20239;-76
2021/07/16 01:36:47;;;;;;;21.13;11.40;;;;;;;17.87;69.88;100653.03;10350890;28;20264;-76
2021/07/16 01:41:51;;;;;;;20.05;10.23;;;;;;;17.86;69.87;100649.47;10348842;28;21488;-76
2021/07/16 01:53:41;;;;;;;21.58;10.23;;;;;;;17.58;70.79;100648.00;10342597;28;20598;-76
2021/07/16 01:58:46;;;;;;;26.17;10.45;;;;;;;17.44;70.95;100653.06;10349897;28;20400;-76
2021/07/16 02:03:48;;;;;;;23.38;10.35;;;;;;;17.57;70.72;100654.47;10347912;28;20261;-76
2021/07/16 02:08:51;;;;;;;16.75;9.93;;;;;;;17.70;70.51;100654.84;10347162;28;20304;-75
2021/07/16 02:13:56;;;;;;;22.70;11.05;;;;;;;17.70;70.45;100652.13;10347184;28;20226;-76
2021/07/16 02:18:59;;;;;;;22.83;10.57;;;;;;;17.64;70.98;100658.22;10348654;28;20311;-76
2021/07/16 02:24:02;;;;;;;24.58;10.45;;;;;;;17.39;72.19;100670.84;10348029;28;20628;-75
2021/07/16 02:29:06;;;;;;;24.30;9.95;;;;;;;17.10;72.85;100661.16;10347236;28;20321;-75
2021/07/16 02:34:09;;;;;;;22.38;9.85;;;;;;;16.58;74.13;100669.25;10349948;28;20257;-76
2021/07/16 02:39:12;;;;;;;20.00;10.10;;;;;;;16.75;73.75;100675.66;10346526;28;20754;-75
2021/07/16 02:44:17;;;;;;;22.85;9.52;;;;;;;16.84;72.96;100684.69;10348578;28;20718;-76
2021/07/16 02:49:19;;;;;;;22.42;9.85;;;;;;;16.96;72.84;100680.72;10346762;28;20238;-75
2021/07/16 02:54:22;;;;;;;19.58;9.43;;;;;;;16.71;72.97;100683.25;10347283;28;20237;-76
2021/07/16 02:59:27;;;;;;;20.42;9.80;;;;;;;16.55;73.70;100677.69;10346553;28;20242;-76
2021/07/16 03:04:30;;;;;;;26.77;10.32;;;;;;;16.59;73.79;100685.38;10347279;28;20234;-75
2021/07/16 03:09:34;;;;;;;20.42;9.82;;;;;;;16.69;73.20;100697.97;10348545;28;20253;-75
2021/07/16 03:14:38;;;;;;;17.83;9.95;;;;;;;16.74;72.70;100695.66;10345530;28;21267;-75
2021/07/16 03:19:41;;;;;;;20.73;9.85;;;;;;;16.75;72.92;100709.03;10345416;28;20235;-76
2021/07/16 03:24:44;;;;;;;19.63;10.13;;;;;;;16.72;72.71;100700.38;10345375;28;20711;-75
2021/07/16 03:29:48;;;;;;;17.67;9.48;;;;;;;16.60;73.12;100699.78;10350395;28;20233;-76
2021/07/16 03:34:51;;;;;;;25.38;9.82;;;;;;;16.32;74.34;100705.28;10353171;28;20238;-75
2021/07/16 03:39:54;;;;;;;18.63;9.90;;;;;;;16.27;74.41;100706.75;10352163;28;20723;-75
2021/07/16 03:44:58;;;;;;;19.85;9.82;;;;;;;16.31;74.34;100708.97;10353349;28;20225;-75
2021/07/16 03:50:01;;;;;;;22.17;10.25;;;;;;;16.00;75.51;100718.44;10352403;28;20924;-76
2021/07/16 03:55:06;;;;;;;22.40;9.48;;;;;;;16.25;75.12;100716.84;10351793;28;20699;-76
2021/07/16 04:00:13;;;;;;;18.77;9.88;;;;;;;16.08;75.86;100711.25;10351899;28;20292;-75
2021/07/16 04:05:16;;;;;;;23.45;11.20;;;;;;;15.81;77.74;100716.69;10351909;28;20253;-76
2021/07/16 04:10:21;;;;;;;22.30;9.88;;;;;;;15.85;77.59;100729.81;10351693;28;20238;-75
2021/07/16 04:15:30;;;;;;;23.50;10.43;;;;;;;16.17;77.29;100720.31;10350835;28;20244;-74
2021/07/16 04:20:34;;;;;;;21.42;11.05;;;;;;;16.06;76.51;100726.81;10351400;28;20238;-75
2021/07/16 04:25:37;;;;;;;23.58;10.13;;;;;;;16.24;75.85;100731.44;10353242;28;20238;-75
2021/07/16 04:30:42;;;;;;;25.08;10.70;;;;;;;16.18;75.62;100732.91;10352463;28;20700;-75
2021/07/16 04:35:45;;;;;;;23.20;9.98;;;;;;;15.97;75.60;100730.44;10349817;28;20238;-76
2021/07/16 04:40:48;;;;;;;21.60;10.63;;;;;;;16.07;75.72;100727.66;10351289;28;20234;-75
2021/07/16 04:45:52;;;;;;;22.80;11.65;;;;;;;15.85;76.58;100729.81;10351218;28;20700;-75
2021/07/16 04:50:55;;;;;;;25.40;11.48;;;;;;;16.07;75.64;100733.97;10351570;28;20317;-75
2021/07/16 04:55:58;;;;;;;31.55;11.23;;;;;;;16.20;75.01;100736.28;10350857;28;20250;-75
2021/07/16 05:01:02;;;;;;;24.25;12.15;;;;;;;16.10;74.81;100744.50;10353550;28;20250;-75
2021/07/16 05:06:06;;;;;;;24.60;11.52;;;;;;;16.25;74.56;100741.25;10350165;28;20234;-75
2021/07/16 05:11:09;;;;;;;26.50;10.45;;;;;;;16.33;74.38;100738.66;10351066;28;20238;-75
2021/07/16 05:16:16;;;;;;;35.78;11.38;;;;;;;16.17;74.35;100746.59;10351885;28;21670;-76
2021/07/16 05:21:19;;;;;;;20.60;10.38;;;;;;;16.35;74.55;100744.78;10351240;28;20433;-75
2021/07/16 05:26:22;;;;;;;18.23;9.70;;;;;;;16.56;73.99;100747.19;10351023;28;20234;-75
2021/07/16 05:31:26;;;;;;;18.58;10.50;;;;;;;16.47;73.22;100759.81;10350519;28;20313;-76
2021/07/16 05:36:29;;;;;;;24.13;10.40;;;;;;;16.41;73.33;100762.31;10352620;28;20243;-76
2021/07/16 05:41:32;;;;;;;23.67;11.45;;;;;;;16.28;73.95;100760.78;10350588;28;20654;-75
2021/07/16 05:46:36;;;;;;;25.17;10.50;;;;;;;16.50;73.86;100755.94;10351608;28;20236;-75
2021/07/16 05:51:39;;;;;;;22.58;10.55;;;;;;;16.40;73.56;100756.03;10350109;28;21377;-76
2021/07/16 05:56:44;;;;;;;18.98;10.48;;;;;;;16.22;74.22;100766.81;10332050;28;20238;-75
2021/07/16 06:01:49;;;;;;;28.20;11.43;;;;;;;16.19;73.99;100752.72;10350265;28;20624;-74
2021/07/16 06:06:52;;;;;;;30.27;11.98;;;;;;;16.12;75.10;100772.25;10348923;28;20773;-74
2021/07/16 06:11:56;;;;;;;22.67;11.02;;;;;;;16.32;73.81;100774.91;10350021;28;20317;-74
2021/07/16 06:17:01;;;;;;;21.85;10.68;;;;;;;16.20;74.77;100778.81;10349803;28;20234;-74
2021/07/16 06:22:04;;;;;;;32.80;12.25;;;;;;;16.44;73.33;100770.13;10350156;28;20231;-74
2021/07/16 06:27:08;;;;;;;28.13;12.55;;;;;;;16.18;74.44;100784.38;10337876;28;20238;-74
2021/07/16 06:32:13;;;;;;;29.50;11.52;;;;;;;16.20;73.73;100785.06;10349119;28;20233;-76
2021/07/16 06:37:16;;;;;;;23.67;10.48;;;;;;;16.03;74.42;100786.72;10347762;28;20234;-74
2021/07/16 06:42:19;;;;;;;26.90;11.93;;;;;;;15.86;75.21;100782.97;10348923;28;20241;-74
2021/07/16 06:47:23;;;;;;;27.85;11.43;;;;;;;16.47;73.05;100795.06;10347288;28;20612;-73
2021/07/16 06:52:26;;;;;;;26.65;11.70;;;;;;;16.41;72.56;100811.09;10349056;28;20242;-74
2021/07/16 06:57:29;;;;;;;22.70;11.02;;;;;;;16.72;72.19;100822.44;10346853;28;20238;-74
2021/07/16 07:02:33;;;;;;;25.00;10.40;;;;;;;16.86;71.42;100824.63;10348702;28;20234;-73
2021/07/16 07:07:36;;;;;;;21.70;10.50;;;;;;;16.87;71.23;100825.50;10346703;28;20234;-74
2021/07/16 07:12:39;;;;;;;23.20;10.30;;;;;;;17.19;69.75;100825.78;10347482;28;20241;-74
2021/07/16 07:17:46;;;;;;;22.58;10.43;;;;;;;17.56;68.48;100818.44;10351786;28;20697;-74
2021/07/16 07:22:49;;;;;;;19.65;9.73;;;;;;;17.75;67.91;100826.38;10347116;28;20226;-73
2021/07/16 07:27:51;;;;;;;21.58;9.65;;;;;;;17.63;67.93;100827.66;10347714;28;20250;-73
2021/07/16 07:32:56;;;;;;;26.25;10.23;;;;;;;17.65;67.44;100829.19;10370193;28;20230;-74
2021/07/16 07:37:59;;;;;;;20.85;9.52;;;;;;;17.91;67.07;100831.06;10388052;28;20238;-74
2021/07/16 07:43:03;;;;;;;19.23;9.18;;;;;;;18.17;66.15;100832.91;10387206;28;20242;-74
2021/07/16 07:48:07;;;;;;;22.38;10.02;;;;;;;17.75;67.09;100844.56;10386576;28;20237;-76
2021/07/16 07:53:11;;;;;;;27.42;9.15;;;;;;;17.48;68.46;100833.66;10388815;28;20232;-74
2021/07/16 07:58:14;;;;;;;22.25;10.15;;;;;;;17.88;66.52;100848.53;10386866;28;20241;-73
2021/07/16 08:03:18;;;;;;;20.33;9.73;;;;;;;18.29;65.53;100853.34;10389966;28;20234;-73
2021/07/16 08:08:21;;;;;;;18.42;8.75;;;;;;;18.48;64.48;100850.34;10386552;28;20253;-73
2021/07/16 08:13:24;;;;;;;22.77;8.82;;;;;;;18.36;64.93;100860.69;10386864;28;20238;-72
2021/07/16 08:18:29;;;;;;;24.02;9.35;;;;;;;18.54;64.32;100863.31;10392709;28;20233;-73
2021/07/16 08:23:32;;;;;;;21.60;9.60;;;;;;;19.07;63.99;100866.69;10393635;28;21358;-73
2021/07/16 08:28:34;;;;;;;20.38;8.45;;;;;;;19.35;63.22;100874.53;10392535;28;20312;-72
2021/07/16 08:33:39;;;;;;;21.83;8.27;;;;;;;19.65;61.50;100879.31;10393797;28;20245;-73
2021/07/16 08:38:45;;;;;;;21.42;9.05;;;;;;;19.13;62.55;100876.91;10394559;28;20245;-73
2021/07/16 08:43:50;;;;;;;17.50;8.20;;;;;;;18.76;63.19;100893.66;10393017;28;20330;-73
2021/07/16 08:48:54;;;;;;;22.08;9.30;;;;;;;17.72;67.11;100900.06;10399198;28;20233;-73
2021/07/16 08:53:58;;;;;;;20.73;8.63;;;;;;;18.73;65.14;100903.00;10382463;28;20730;-72
2021/07/16 08:59:03;;;;;;;16.73;8.07;;;;;;;19.45;62.82;100888.84;10351750;28;20246;-74
2021/07/16 09:04:09;;;;;;;23.70;8.80;;;;;;;19.59;61.82;100896.34;10351557;28;20278;-73
2021/07/16 09:09:12;;;;;;;20.52;9.07;;;;;;;19.14;62.60;100899.53;10350635;28;20613;-73
2021/07/16 09:14:21;;;;;;;17.17;9.25;;;;;;;19.43;62.11;100897.16;10351691;28;20230;-73
2021/07/16 09:19:31;;;;;;;15.45;9.43;;;;;;;18.49;64.52;100901.03;10350551;28;20238;-73
2021/07/16 09:24:34;;;;;;;16.80;8.38;;;;;;;19.04;64.19;100909.75;10350539;28;20232;-73
2021/07/16 09:29:37;;;;;;;18.27;8.20;;;;;;;19.34;62.98;100914.53;10343887;28;20251;-73
2021/07/16 09:34:41;;;;;;;18.40;8.88;;;;;;;19.33;62.44;100923.72;10352761;28;20715;-72
2021/07/16 09:39:46;;;;;;;18.17;7.50;;;;;;;19.20;62.97;100920.66;10351912;28;20242;-72
2021/07/16 09:44:58;;;;;;;17.88;8.30;;;;;;;19.04;63.23;100912.47;10352337;28;20784;-72
2021/07/16 09:50:10;;;;;;;22.13;8.35;;;;;;;17.82;66.00;100925.25;10350110;28;20245;-72
2021/07/16 09:55:16;;;;;;;24.40;8.65;;;;;;;18.02;66.30;100916.91;10350918;28;21367;-72
2021/07/16 10:00:21;;;;;;;16.95;8.93;;;;;;;18.39;65.53;100927.50;10350975;28;20242;-72
2021/07/16 10:05:25;;;;;;;18.42;8.23;;;;;;;18.62;64.71;100925.03;10355893;28;20766;-71
2021/07/16 10:10:29;;;;;;;20.20;7.85;;;;;;;18.67;64.97;100930.00;10357544;28;20241;-73
2021/07/16 10:15:32;;;;;;;23.77;8.65;;;;;;;18.65;65.23;100935.63;10337179;28;20245;-77
2021/07/16 10:20:37;;;;;;;20.35;9.05;;;;;;;18.80;65.21;100942.16;10335399;28;20249;-77
2021/07/16 10:25:41;;;;;;;18.73;8.75;;;;;;;18.85;64.84;100932.66;10351077;28;21643;-75
2021/07/16 10:30:44;;;;;;;22.80;9.60;;;;;;;18.72;65.91;100942.09;10350257;28;20234;-74
2021/07/16 10:35:49;;;;;;;23.50;8.68;;;;;;;18.95;65.08;100949.69;10353104;28;20238;-76
2021/07/16 10:40:52;;;;;;;24.27;8.88;;;;;;;18.73;65.54;100948.38;10356843;28;26414;-74
2021/07/16 10:45:56;;;;;;;16.98;8.73;;;;;;;19.05;63.25;100974.06;10355981;28;21502;-75
2021/07/16 10:51:03;;;;;;;24.30;8.80;;;;;;;18.96;63.40;100963.13;10350159;28;20628;-75
2021/07/16 10:56:10;;;;;;;17.67;7.75;;;;;;;19.66;62.40;100976.41;10353872;28;21132;-76
2021/07/16 11:01:14;;;;;;;18.30;8.63;;;;;;;20.46;60.50;100983.84;10343752;28;20245;-76
2021/07/16 11:06:20;;;;;;;17.83;7.38;;;;;;;19.58;62.33;100986.44;10350016;28;20245;-75
2021/07/16 11:11:35;;;;;;;14.55;7.05;;;;;;;19.08;63.19;100976.44;10348693;28;20234;-76
2021/07/16 11:16:47;;;;;;;16.75;6.93;;;;;;;18.98;64.25;100974.72;10349915;28;20242;-75
2021/07/16 11:22:04;;;;;;;15.95;7.28;;;;;;;19.65;62.10;100969.25;10346021;28;20230;-76
2021/07/16 11:27:15;;;;;;;11.43;6.70;;;;;;;19.52;62.44;100977.03;10349251;28;20252;-75
2021/07/16 11:32:20;;;;;;;19.05;8.00;;;;;;;20.03;61.44;100969.56;10350120;28;20235;-75
2021/07/16 11:37:28;;;;;;;11.68;6.72;;;;;;;20.56;60.27;100964.53;10346835;28;20241;-74
2021/07/16 11:42:33;;;;;;;15.32;6.90;;;;;;;23.13;55.44;100962.03;10346111;28;20238;-74
2021/07/16 11:47:36;;;;;;;18.70;7.10;;;;;;;23.26;52.48;100959.44;10346041;28;20812;-74
2021/07/16 11:52:43;;;;;;;14.95;6.78;;;;;;;23.24;52.19;100947.81;10352575;28;20242;-74
2021/07/16 11:57:48;;;;;;;16.90;7.85;;;;;;;21.61;56.05;100970.47;10352869;28;20242;-74
2021/07/16 12:02:51;;;;;;;15.27;7.57;;;;;;;20.81;59.11;100970.75;10371981;28;21321;-74
2021/07/16 12:07:56;;;;;;;16.70;7.53;;;;;;;20.58;59.60;100967.94;10357853;28;20238;-75
2021/07/16 12:13:01;;;;;;;18.08;8.45;;;;;;;20.85;60.04;100977.56;10345454;28;20588;-75
2021/07/16 12:18:06;;;;;;;12.43;7.35;;;;;;;21.79;57.42;100980.25;10351614;28;20816;-74
2021/07/16 12:23:15;;;;;;;13.15;6.50;;;;;;;20.42;59.16;100989.81;10351566;28;20235;-74
2021/07/16 12:28:20;;;;;;;14.00;6.55;;;;;;;21.95;55.88;100976.53;10352718;28;20231;-75
2021/07/16 12:33:32;;;;;;;13.48;6.03;;;;;;;21.21;57.94;100988.00;10352900;28;20230;-74
2021/07/16 12:38:44;;;;;;;12.20;6.10;;;;;;;20.37;60.52;101003.97;10349436;28;20245;-74
2021/07/16 12:43:47;;;;;;;6.00;4.95;;;;;;;20.71;57.89;101001.00;10349660;28;20234;-74
2021/07/16 12:48:50;;;;;;;8.38;5.18;;;;;;;21.24;57.61;100998.56;10350686;28;20242;-74
2021/07/16 12:53:56;;;;;;;7.10;5.45;;;;;;;21.27;57.12;100992.72;10350905;28;20712;-75
2021/07/16 12:59:00;;;;;;;10.00;5.60;;;;;;;22.70;53.65;100987.38;10353035;28;20349;-74
2021/07/16 13:04:12;;;;;;;12.10;5.75;;;;;;;24.81;48.23;100980.53;10343448;28;20242;-75
2021/07/16 13:09:20;;;;;;;10.13;6.30;;;;;;;23.59;50.79;100989.94;10335284;28;20739;-74
2021/07/16 13:14:24;;;;;;;10.75;5.90;;;;;;;24.30;49.63;100992.69;10349778;28;20230;-74
2021/07/16 13:19:27;;;;;;;10.73;6.63;;;;;;;23.32;51.46;100996.19;10350771;28;20226;-75
2021/07/16 13:24:31;;;;;;;12.20;6.88;;;;;;;21.63;55.65;101006.66;10349314;28;20230;-76
2021/07/16 13:29:34;;;;;;;16.52;7.47;;;;;;;20.73;59.66;101009.00;10350281;28;20238;-74
2021/07/16 13:34:37;;;;;;;16.90;8.18;;;;;;;21.03;58.64;101018.25;10352410;28;20234;-75
2021/07/16 13:39:41;;;;;;;13.77;7.80;;;;;;;20.67;59.48;101009.69;10352412;28;20665;-74
2021/07/16 13:44:45;;;;;;;13.80;8.00;;;;;;;20.75;60.04;101006.94;10351739;28;20241;-74
2021/07/16 13:49:47;;;;;;;11.93;8.00;;;;;;;21.77;57.28;101004.19;10353523;28;20226;-75
2021/07/16 13:54:52;;;;;;;13.02;8.52;;;;;;;21.24;58.18;101006.75;10352412;28;20857;-74
2021/07/16 13:59:55;;;;;;;13.50;7.82;;;;;;;21.19;57.85;101009.16;10352322;28;20234;-74
2021/07/16 14:04:58;;;;;;;17.23;8.43;;;;;;;20.85;58.31;101006.75;10350643;28;20230;-74
2021/07/16 14:10:02;;;;;;;19.38;8.90;;;;;;;21.63;56.04;101006.66;10354380;28;20238;-75
2021/07/16 14:15:07;;;;;;;15.60;8.75;;;;;;;21.24;57.99;101006.75;10340837;28;20239;-74
2021/07/16 14:20:11;;;;;;;20.30;9.02;;;;;;;20.94;58.83;101002.94;10341098;28;20237;-74
2021/07/16 14:25:16;;;;;;;19.25;9.00;;;;;;;20.69;61.10;101004.94;10349632;28;20230;-75
2021/07/16 14:30:20;;;;;;;20.33;9.30;;;;;;;21.34;58.72;101003.81;10349231;28;20238;-75
2021/07/16 14:35:24;;;;;;;16.58;9.05;;;;;;;21.00;58.54;101004.97;10349746;28;20282;-74
2021/07/16 14:40:29;;;;;;;21.35;9.68;;;;;;;20.72;60.42;101008.16;10342772;28;20245;-74
2021/07/16 14:45:32;;;;;;;20.17;9.02;;;;;;;20.82;60.19;101005.22;10310292;28;20861;-75
2021/07/16 14:50:35;;;;;;;20.60;9.32;;;;;;;20.54;61.06;100999.31;10367434;28;20230;-74
2021/07/16 14:55:39;;;;;;;21.77;9.88;;;;;;;20.75;61.15;100999.59;10370299;28;20887;-75
2021/07/16 15:00:43;;;;;;;24.80;11.18;;;;;;;20.52;61.50;100985.03;10369557;28;20688;-75
2021/07/16 15:05:46;;;;;;;26.30;9.73;;;;;;;20.83;60.67;100997.88;10356886;28;20231;-75
2021/07/16 15:10:51;;;;;;;19.08;8.80;;;;;;;20.71;61.41;101000.16;10351092;28;20907;-74
2021/07/16 15:15:54;;;;;;;21.67;10.45;;;;;;;20.87;59.87;101011.00;10348048;28;20230;-74
2021/07/16 15:20:57;;;;;;;23.60;10.57;;;;;;;20.71;60.57;101011.91;10349284;28;21477;-74
2021/07/16 15:26:01;;;;;;;24.40;9.82;;;;;;;20.34;61.95;101005.16;10347894;28;20244;-74
2021/07/16 15:31:04;;;;;;;18.58;9.85;;;;;;;20.92;60.96;101005.84;10349124;28;20944;-74
2021/07/16 15:36:08;;;;;;;18.40;9.73;;;;;;;20.56;60.81;101013.66;10349165;28;20266;-74
2021/07/16 15:41:13;;;;;;;24.85;10.57;;;;;;;20.39;61.60;101012.00;10306378;28;20239;-74
2021/07/16 15:46:16;;;;;;;16.95;9.75;;;;;;;21.21;59.90;101005.22;10305855;28;20239;-74
2021/07/16 15:51:19;;;;;;;19.85;10.75;;;;;;;20.71;60.82;101005.59;10306206;28;20231;-74
2021/07/16 15:56:23;;;;;;;21.17;10.52;;;;;;;20.34;61.21;100996.16;10304447;28;20231;-74
2021/07/16 16:01:26;;;;;;;19.25;10.35;;;;;;;20.86;61.17;101000.25;10306523;28;20349;-74
2021/07/16 16:06:30;;;;;;;19.38;10.45;;;;;;;20.70;61.32;100998.44;10309761;28;20234;-74
2021/07/16 16:11:34;;;;;;;28.73;10.70;;;;;;;20.76;60.71;100993.13;10339573;28;20230;-74
2021/07/16 16:16:37;;;;;;;21.23;9.77;;;;;;;20.13;62.28;100994.78;10316187;28;20239;-74
2021/07/16 16:21:40;;;;;;;22.50;10.52;;;;;;;20.54;62.00;100992.00;10317717;28;20239;-75
2021/07/16 16:26:45;;;;;;;24.15;9.68;;;;;;;20.80;61.76;101001.81;10344802;28;20710;-74
2021/07/16 16:31:48;;;;;;;19.33;10.57;;;;;;;20.58;61.16;101002.56;10344888;28;20241;-76
2021/07/16 16:36:51;;;;;;;21.27;10.70;;;;;;;20.64;61.41;100994.53;10350541;28;20249;-75
2021/07/16 16:41:55;;;;;;;20.58;10.18;;;;;;;20.25;62.19;100986.25;10350434;28;20750;-74
2021/07/16 16:46:59;;;;;;;18.20;9.93;;;;;;;20.54;61.33;100985.69;10352647;28;20230;-78
2021/07/16 16:52:04;;;;;;;18.10;9.93;;;;;;;20.87;60.41;101002.81;10354846;28;20245;-74
2021/07/16 16:57:08;;;;;;;18.73;10.27;;;;;;;20.94;60.50;100998.31;10352341;28;20242;-75
2021/07/16 17:02:11;;;;;;;19.80;10.65;;;;;;;20.83;60.66;100996.00;10352633;28;20249;-74
2021/07/16 17:07:14;;;;;;;21.52;11.85;;;;;;;20.66;61.55;100997.94;10353536;28;20237;-74
2021/07/16 17:12:18;;;;;;;22.95;10.25;;;;;;;20.46;61.67;101013.00;10354400;28;20238;-75
2021/07/16 17:17:28;;;;;;;22.77;10.63;;;;;;;20.01;62.74;101008.94;10351323;28;20238;-74
2021/07/16 17:22:31;;;;;;;22.35;10.77;;;;;;;19.84;63.63;101019.00;10352949;28;20250;-74
2021/07/16 17:27:36;;;;;;;25.25;11.73;;;;;;;19.88;64.01;101032.13;10352412;28;20803;-75
2021/07/16 17:32:39;;;;;;;19.90;11.55;;;;;;;20.00;63.66;101029.91;10351008;28;20796;-73
2021/07/16 17:37:44;;;;;;;19.50;11.57;;;;;;;20.09;63.46;101030.75;10342700;28;20314;-73
2021/07/16 17:42:52;;;;;;;20.45;11.18;;;;;;;20.30;63.17;101027.50;10353286;28;20620;-73
2021/07/16 17:47:55;;;;;;;23.15;11.68;;;;;;;20.07;63.70;101028.19;10351319;28;20272;-73
2021/07/16 17:52:59;;;;;;;19.15;11.43;;;;;;;20.16;63.53;101039.09;10355126;28;20226;-73
2021/07/16 17:58:04;;;;;;;21.48;11.45;;;;;;;20.17;64.12;101046.25;10350876;28;20285;-74
2021/07/16 18:03:07;;;;;;;25.25;11.80;;;;;;;19.91;64.70;101055.44;10352217;28;20246;-73
2021/07/16 18:08:11;;;;;;;23.52;12.95;;;;;;;19.70;65.04;101055.13;10359740;28;20426;-73
2021/07/16 18:13:16;;;;;;;25.05;11.68;;;;;;;19.84;65.06;101052.56;10349502;28;20811;-73
2021/07/16 18:18:19;;;;;;;20.60;11.15;;;;;;;19.42;66.10;101058.94;10352454;28;20297;-73
2021/07/16 18:23:22;;;;;;;18.65;12.48;;;;;;;19.31;66.60;101070.13;10338589;28;20885;-73
2021/07/16 18:28:27;;;;;;;24.20;12.68;;;;;;;19.44;66.75;101051.47;10348016;28;20230;-74
2021/07/16 18:33:30;;;;;;;21.48;12.60;;;;;;;19.53;66.40;101062.34;10350583;28;20238;-73
2021/07/16 18:38:33;;;;;;;21.17;12.23;;;;;;;19.50;67.39;101068.13;10348635;28;20243;-73
2021/07/16 18:43:37;;;;;;;19.52;12.18;;;;;;;19.18;67.43;101072.47;10350589;28;20670;-73
2021/07/16 18:48:40;;;;;;;22.83;12.25;;;;;;;19.11;67.85;101071.41;10351119;28;20241;-73
2021/07/16 18:53:44;;;;;;;23.30;12.48;;;;;;;19.15;67.29;101070.94;10349732;28;20226;-73
2021/07/16 18:58:48;;;;;;;21.48;12.20;;;;;;;19.10;67.62;101076.00;10362901;28;20240;-73
2021/07/16 19:03:52;;;;;;;23.73;12.00;;;;;;;19.23;67.17;101072.84;10347021;28;20743;-73
2021/07/16 19:08:55;;;;;;;21.88;11.43;;;;;;;19.22;67.05;101074.69;10347502;28;20245;-73
2021/07/16 19:13:59;;;;;;;23.02;12.95;;;;;;;19.11;67.21;101085.88;10348436;28;20230;-73
2021/07/16 19:19:02;;;;;;;22.35;10.85;;;;;;;19.02;67.52;101086.88;10350770;28;20738;-74
2021/07/16 19:24:05;;;;;;;25.25;11.63;;;;;;;18.90;67.94;101083.56;10347657;28;20828;-73
2021/07/16 19:29:10;;;;;;;21.10;11.55;;;;;;;18.87;68.20;101104.81;10347257;28;20242;-73
2021/07/16 19:34:13;;;;;;;21.90;11.63;;;;;;;18.64;69.01;101104.47;10346035;28;20231;-73
2021/07/16 19:39:16;;;;;;;29.20;12.65;;;;;;;18.83;68.61;101114.31;10346388;28;20238;-73
2021/07/16 19:44:20;;;;;;;22.00;12.02;;;;;;;18.70;69.00;101115.56;10346627;28;20234;-73
2021/07/16 19:49:23;;;;;;;28.88;13.38;;;;;;;18.74;68.79;101130.56;10347342;28;20242;-73
2021/07/16 19:54:26;;;;;;;24.42;11.77;;;;;;;18.71;69.08;101127.31;10349484;28;20234;-74
2021/07/16 19:59:31;;;;;;;30.40;13.05;;;;;;;18.74;68.97;101135.16;10345669;28;20238;-74
2021/07/16 20:04:34;;;;;;;21.75;12.38;;;;;;;18.77;68.76;101143.00;10348839;28;20242;-73
2021/07/16 20:09:37;;;;;;;23.85;11.00;;;;;;;18.71;69.13;101149.09;10347984;28;20241;-75
2021/07/16 20:14:41;;;;;;;24.60;12.73;;;;;;;18.60;69.49;101149.34;10353378;28;20237;-74
2021/07/16 20:19:44;;;;;;;25.00;12.30;;;;;;;18.55;69.52;101156.09;10355282;28;20246;-74
2021/07/16 20:24:47;;;;;;;27.83;12.55;;;;;;;18.19;70.16;101154.44;10355313;28;20234;-74
2021/07/16 20:29:51;;;;;;;24.75;12.45;;;;;;;18.14;70.58;101161.19;10355132;28;20238;-74
2021/07/16 20:34:54;;;;;;;26.98;12.80;;;;;;;18.39;70.08;101166.00;10346088;28;20226;-74
2021/07/16 20:39:57;;;;;;;25.45;13.68;;;;;;;18.32;69.91;101163.91;10352188;28;20230;-74
2021/07/16 20:45:01;;;;;;;20.90;12.40;;;;;;;18.35;70.01;101169.03;10372283;28;20340;-75
2021/07/16 20:50:07;;;;;;;22.10;12.32;;;;;;;18.10;70.49;101169.78;10393562;28;20244;-74
2021/07/16 20:55:10;;;;;;;27.75;11.60;;;;;;;18.27;70.08;101166.25;10391777;28;20616;-74
2021/07/16 21:00:17;;;;;;;24.67;12.18;;;;;;;18.26;69.92;101161.78;10394027;28;20734;-73
2021/07/16 21:05:20;;;;;;;29.92;13.50;;;;;;;17.96;70.34;101173.88;10393670;28;20268;-74
2021/07/16 21:10:23;;;;;;;26.63;12.77;;;;;;;18.02;70.67;101167.00;10395827;28;20926;-73
2021/07/16 21:15:28;;;;;;;23.25;11.95;;;;;;;17.99;70.52;101162.75;10392356;28;20593;-73
2021/07/16 21:20:31;;;;;;;22.67;11.90;;;;;;;18.06;70.45;101171.13;10408282;28;20309;-74
2021/07/16 21:25:34;;;;;;;22.50;12.27;;;;;;;18.12;70.50;101174.06;10391423;28;20237;-74
2021/07/16 21:30:38;;;;;;;26.10;11.85;;;;;;;17.99;70.52;101173.63;10392461;28;20233;-74
2021/07/16 21:35:41;;;;;;;21.77;12.05;;;;;;;18.04;70.53;101170.41;10391944;28;21498;-74
2021/07/16 21:40:44;;;;;;;20.02;11.63;;;;;;;17.97;70.66;101167.47;10390721;28;20269;-74
2021/07/16 21:45:48;;;;;;;24.05;13.20;;;;;;;17.90;70.83;101175.34;10406820;28;20240;-73
2021/07/16 21:50:52;;;;;;;22.08;11.68;;;;;;;18.19;70.07;101182.47;10394928;28;20240;-74
2021/07/16 21:56:00;;;;;;;26.42;12.98;;;;;;;18.07;70.22;101184.59;10393758;28;20252;-74
2021/07/16 22:01:05;;;;;;;26.75;12.60;;;;;;;18.17;69.95;101183.66;10392744;28;20238;-73
2021/07/16 22:06:09;;;;;;;26.83;12.70;;;;;;;18.15;69.90;101183.78;10393325;28;20244;-74
2021/07/16 22:11:14;;;;;;;21.60;11.82;;;;;;;18.19;69.91;101182.47;10391347;28;20260;-75
2021/07/16 22:16:18;;;;;;;23.58;13.05;;;;;;;18.22;69.68;101184.03;10370952;28;20250;-74
2021/07/16 22:21:22;;;;;;;24.13;11.90;;;;;;;18.15;69.88;101189.22;10339833;28;20710;-74
2021/07/16 22:26:24;;;;;;;21.45;11.82;;;;;;;18.17;69.90;101191.81;10340895;28;20936;-74
2021/07/16 22:31:29;;;;;;;23.92;13.45;;;;;;;18.00;70.58;101191.63;10340058;28;20241;-74
2021/07/16 22:36:32;;;;;;;21.90;12.70;;;;;;;18.10;70.51;101189.72;10349089;28;20316;-74
2021/07/16 22:41:35;;;;;;;25.15;13.60;;;;;;;18.16;70.50;101198.25;10349311;28;20230;-74
2021/07/16 22:46:39;;;;;;;27.20;14.00;;;;;;;18.09;70.35;101198.84;10348433;28;20238;-75
2021/07/16 22:51:42;;;;;;;25.80;13.63;;;;;;;18.01;70.69;101184.31;10351669;28;20242;-75
2021/07/16 22:56:45;;;;;;;25.55;15.63;;;;;;;17.79;71.87;101174.72;10351015;28;20253;-74